Time;durP1;ratioP1;P1;durP2;ratioP2;P2;SDS_P1;SDS_P2;PMS_P1;PMS_P2;Temp;Humidity;BMP_temperature;BMP_pressure;BME280_temperature;BME280_humidity;BME280_pressure;Samples;Min_cycle;Max_cycle;Signal;HPM_P1;HPM_P2
2022/06/30 00:00:10;;;;;;;;;0.00;0.00;;;;;-146.67;30.34;73493.81;5062095;28;62035;-77
2022/06/30 00:02:35;;;;;;;;;0.00;0.00;;;;;-146.67;29.89;73489.84;5061045;28;62136;-77
2022/06/30 00:05:01;;;;;;;;;0.00;0.00;;;;;-146.67;30.20;73477.84;5062052;28;61797;-77
2022/06/30 00:07:26;;;;;;;;;0.00;0.00;;;;;-146.67;30.26;73469.88;5062091;28;62140;-77
2022/06/30 00:09:52;;;;;;;;;0.00;0.00;;;;;-146.67;29.77;73489.84;5060222;28;61978;-77
2022/06/30 00:12:17;;;;;;;;;0.00;0.00;;;;;-146.67;30.09;73513.78;5063211;28;61969;-77
2022/06/30 00:14:43;;;;;;;;;0.00;0.00;;;;;-146.67;30.41;73515.78;5063654;28;61976;-77
2022/06/30 00:17:08;;;;;;;;;0.00;0.00;;;;;-146.67;30.29;73517.78;5063608;28;61979;-77
2022/06/30 00:19:35;;;;;;;;;0.00;0.00;;;;;-146.67;30.60;73533.75;5065691;28;61964;-77
2022/06/30 00:22:01;;;;;;;;;0.00;0.00;;;;;-146.67;30.28;73559.69;5062808;28;63673;-77
2022/06/30 00:24:27;;;;;;;;;0.00;0.00;;;;;-146.67;30.07;73569.66;5064774;28;61779;-77
2022/06/30 00:26:52;;;;;;;;;0.00;0.00;;;;;-146.67;30.47;73575.66;5050106;28;62043;-77
2022/06/30 00:29:18;;;;;;;;;0.00;0.00;;;;;-146.67;30.25;73587.63;5043850;28;61879;-76
2022/06/30 00:31:43;;;;;;;;;0.00;0.00;;;;;-146.67;30.43;73611.59;5043664;28;61839;-77
2022/06/30 00:34:09;;;;;;;;;0.00;0.00;;;;;-146.67;30.72;73623.56;5044913;28;61805;-77
2022/06/30 00:36:34;;;;;;;;;0.00;0.00;;;;;-146.67;31.31;73637.53;5044474;28;61829;-77
2022/06/30 00:38:59;;;;;;;;;0.00;0.00;;;;;-146.67;31.65;73647.50;5054878;28;62169;-77
2022/06/30 00:41:25;;;;;;;;;0.00;0.00;;;;;-146.67;31.11;73655.50;5064114;28;61908;-77
2022/06/30 00:43:51;;;;;;;;;0.00;0.00;;;;;-146.67;31.62;73643.53;5064828;28;62005;-77
2022/06/30 00:46:16;;;;;;;;;0.00;0.00;;;;;-146.67;30.98;73641.53;5064547;28;61832;-77
2022/06/30 00:48:43;;;;;;;;;0.00;0.00;;;;;-146.67;31.60;73639.53;5064821;28;62110;-77
2022/06/30 00:51:09;;;;;;;;;0.00;0.00;;;;;-146.67;31.73;73633.53;5064038;28;61707;-77
2022/06/30 00:53:37;;;;;;;;;0.00;0.00;;;;;-146.67;31.96;73641.53;5064100;28;61843;-77
2022/06/30 00:56:05;;;;;;;;;0.00;0.00;;;;;-146.67;31.87;73623.56;5064318;28;62185;-77
2022/06/30 00:58:35;;;;;;;;;0.00;0.00;;;;;-146.67;31.87;73609.59;5064912;28;61972;-77
2022/06/30 01:01:03;;;;;;;;;0.00;0.00;;;;;-146.67;31.88;73597.63;5061898;28;63935;-77
2022/06/30 01:03:33;;;;;;;;;0.00;0.00;;;;;-146.67;31.48;73593.63;5063026;28;61922;-77
2022/06/30 01:06:03;;;;;;;;;0.00;0.00;;;;;-146.67;31.27;73577.66;5064461;28;61916;-77
2022/06/30 01:08:32;;;;;;;;;0.00;0.00;;;;;-146.67;31.59;73577.66;5064788;28;61968;-77
2022/06/30 01:13:43;;;;;;;;;0.00;0.00;;;;;-146.67;31.28;73563.69;5064502;28;61761;-77
2022/06/30 01:16:10;;;;;;;;;0.00;0.00;;;;;-146.67;31.63;73545.72;5062501;28;61733;-76
2022/06/30 01:18:35;;;;;;;;;0.00;0.00;;;;;-146.67;31.48;73557.69;5064658;28;61897;-77
2022/06/30 01:21:01;;;;;;;;;0.00;0.00;;;;;-146.67;31.49;73563.69;5063158;28;62371;-76
2022/06/30 01:23:27;;;;;;;;;0.00;0.00;;;;;-146.67;31.35;73577.66;5062599;28;61710;-77
2022/06/30 01:25:53;;;;;;;;;1.00;1.00;;;;;-146.67;31.36;73585.63;5057349;28;61914;-77
2022/06/30 01:28:19;;;;;;;;;0.00;0.00;;;;;-146.67;31.59;73599.63;5044254;28;61880;-77
2022/06/30 01:30:45;;;;;;;;;0.00;0.00;;;;;-146.67;31.91;73629.56;5041507;28;63580;-77
2022/06/30 01:33:11;;;;;;;;;0.00;0.00;;;;;-146.67;31.96;73643.53;5042128;28;61836;-76
2022/06/30 01:35:36;;;;;;;;;0.00;0.00;;;;;-146.67;31.65;73627.56;5044037;28;61978;-77
2022/06/30 01:38:02;;;;;;;;;0.00;0.00;;;;;-146.67;31.88;73631.53;5045873;28;62107;-77
2022/06/30 01:40:30;;;;;;;;;0.00;0.00;;;;;-146.67;31.54;73627.56;5062909;28;62900;-77
2022/06/30 01:42:56;;;;;;;;;0.00;0.00;;;;;-146.67;31.19;73623.56;5062376;28;61806;-77
2022/06/30 01:45:22;;;;;;;;;0.00;0.00;;;;;-146.67;31.70;73645.53;5063377;28;61811;-77
2022/06/30 01:47:48;;;;;;;;;0.00;0.00;;;;;-146.67;31.86;73657.50;5064121;28;61748;-77
2022/06/30 01:50:18;;;;;;;;;0.00;0.00;;;;;-146.67;31.76;73647.50;5063073;28;61947;-77
2022/06/30 01:52:44;;;;;;;;;0.00;0.00;;;;;-146.67;31.79;73643.53;5063450;28;61757;-77
2022/06/30 01:55:11;;;;;;;;;0.00;0.00;;;;;-146.67;31.83;73643.53;5063318;28;61972;-77
2022/06/30 01:57:37;;;;;;;;;0.00;0.00;;;;;-146.67;31.74;73661.50;5062606;28;61884;-77
2022/06/30 02:00:09;;;;;;;;;0.00;0.00;;;;;-146.67;31.81;73671.47;5062672;28;61794;-77
2022/06/30 02:02:34;;;;;;;;;0.00;0.00;;;;;-146.67;31.73;73675.47;5079247;27;61952;-76
2022/06/30 02:05:00;;;;;;;;;0.00;0.00;;;;;-146.67;31.78;73671.47;5063671;28;61720;-77
2022/06/30 02:07:26;;;;;;;;;0.00;0.00;;;;;-146.67;31.88;73681.44;5064340;28;61714;-77
2022/06/30 02:09:52;;;;;;;;;0.00;0.00;;;;;-146.67;32.04;73671.47;5063188;28;63447;-77
2022/06/30 02:15:08;;;;;;;;;0.00;0.00;;;;;-146.67;31.90;73645.53;5063509;28;61962;-76
2022/06/30 02:17:33;;;;;;;;;0.00;0.00;;;;;-146.67;31.70;73623.56;5062281;28;61811;-78
2022/06/30 02:20:00;;;;;;;;;0.00;0.00;;;;;-146.67;31.99;73633.53;5061535;28;63165;-77
2022/06/30 02:22:26;;;;;;;;;0.00;0.00;;;;;-146.67;31.71;73621.56;5062702;28;61778;-77
2022/06/30 02:24:51;;;;;;;;;0.00;0.00;;;;;-146.67;31.76;73615.59;5062952;28;61855;-76
2022/06/30 02:27:20;;;;;;;;;0.00;0.00;;;;;-146.67;31.60;73621.56;5044462;28;61880;-77
2022/06/30 02:29:45;;;;;;;;;0.00;0.00;;;;;-146.67;31.65;73619.56;5042576;28;61997;-76
2022/06/30 02:32:11;;;;;;;;;0.00;0.00;;;;;-146.67;31.88;73643.53;5042588;28;61801;-77
2022/06/30 02:34:36;;;;;;;;;0.00;0.00;;;;;-146.67;32.19;73653.50;5042124;28;62001;-76
2022/06/30 02:37:02;;;;;;;;;0.00;0.00;;;;;-146.67;32.16;73669.47;5043266;28;61894;-77
2022/06/30 02:39:27;;;;;;;;;0.00;0.00;;;;;-146.67;31.97;73671.47;5057665;28;62616;-77
2022/06/30 02:41:53;;;;;;;;;0.00;0.00;;;;;-146.67;32.04;73663.47;5062110;28;61757;-77
2022/06/30 02:44:18;;;;;;;;;0.00;0.00;;;;;-146.67;31.51;73683.44;5062698;28;61824;-77
2022/06/30 02:46:44;;;;;;;;;0.00;0.00;;;;;-146.67;32.13;73703.41;5063269;28;61805;-77
2022/06/30 02:49:09;;;;;;;;;0.00;0.00;;;;;-146.67;31.88;73689.44;5062255;28;61844;-77
2022/06/30 02:51:35;;;;;;;;;0.00;0.00;;;;;-146.67;32.01;73705.41;5062722;28;61740;-77
2022/06/30 02:54:00;;;;;;;;;0.00;0.00;;;;;-146.67;31.81;73693.44;5062413;28;61986;-77
2022/06/30 02:56:26;;;;;;;;;0.00;0.00;;;;;-146.67;32.06;73703.41;5061984;28;62033;-76
2022/06/30 02:58:52;;;;;;;;;0.00;0.00;;;;;-146.67;32.02;73709.41;5060910;28;63602;-77
2022/06/30 03:01:19;;;;;;;;;0.00;0.00;;;;;-146.67;32.30;73705.41;5062282;28;61942;-77
2022/06/30 03:03:45;;;;;;;;;0.00;0.00;;;;;-146.67;32.34;73705.41;5062831;28;61776;-77
2022/06/30 03:06:10;;;;;;;;;0.00;0.00;;;;;-146.67;32.08;73695.41;5063105;28;61798;-77
2022/06/30 03:08:35;;;;;;;;;0.00;0.00;;;;;-146.67;31.62;73703.41;5060539;28;64758;-77
2022/06/30 03:11:01;;;;;;;;;0.00;0.00;;;;;-146.67;31.77;73713.38;5061707;28;62446;-77
2022/06/30 03:13:26;;;;;;;;;0.00;0.00;;;;;-146.67;31.99;73727.34;5062740;28;61846;-77
2022/06/30 03:15:52;;;;;;;;;0.00;0.00;;;;;-146.67;31.65;73731.34;5062856;28;62198;-77
2022/06/30 03:18:18;;;;;;;;;0.00;0.00;;;;;-146.67;31.73;73733.34;5061912;28;61769;-76
2022/06/30 03:20:43;;;;;;;;;0.00;0.00;;;;;-146.67;32.02;73739.34;5062375;28;61920;-76
2022/06/30 03:23:09;;;;;;;;;0.00;0.00;;;;;-146.67;32.34;73753.31;5061813;28;61902;-77
2022/06/30 03:25:34;;;;;;;;;0.00;0.00;;;;;-146.67;32.38;73761.28;5057622;28;62037;-76
2022/06/30 03:28:02;;;;;;;;;0.00;0.00;;;;;-146.67;32.35;73737.34;5041716;28;61932;-76
2022/06/30 03:30:27;;;;;;;;;0.00;0.00;;;;;-146.67;31.88;73751.31;5041520;28;61787;-77
2022/06/30 03:32:53;;;;;;;;;0.00;0.00;;;;;-146.67;32.41;73753.31;5041993;28;61700;-76
2022/06/30 03:35:19;;;;;;;;;0.00;0.00;;;;;-146.67;31.93;73787.25;5042284;28;61908;-76
2022/06/30 03:37:44;;;;;;;;;0.00;0.00;;;;;-146.67;32.01;73771.28;5042666;28;61894;-76
2022/06/30 03:40:10;;;;;;;;;0.00;0.00;;;;;-146.67;32.08;73777.25;5060108;28;61781;-77
2022/06/30 03:42:36;;;;;;;;;0.00;0.00;;;;;-146.67;32.05;73769.28;5060422;28;61793;-76
2022/06/30 03:45:02;;;;;;;;;0.00;0.00;;;;;-146.67;31.88;73771.28;5061290;28;62109;-76
2022/06/30 03:47:27;;;;;;;;;0.00;0.00;;;;;-146.67;32.47;73779.25;5065060;28;61884;-76
2022/06/30 03:49:53;;;;;;;;;0.00;0.00;;;;;-146.67;32.50;73771.28;5064292;28;61868;-76
2022/06/30 03:52:18;;;;;;;;;0.00;0.00;;;;;-146.67;32.40;73753.31;5065541;28;61859;-76
2022/06/30 03:54:44;;;;;;;;;0.00;0.00;;;;;-146.67;31.96;73739.34;5064758;28;62168;-76
2022/06/30 03:57:10;;;;;;;;;0.00;0.00;;;;;-146.67;32.13;73763.28;5064664;28;61832;-76
2022/06/30 03:59:37;;;;;;;;;0.00;0.00;;;;;-146.67;32.10;73793.22;5064112;28;62006;-77
2022/06/30 04:02:03;;;;;;;;;0.00;0.00;;;;;-146.67;32.70;73799.22;5062976;28;61862;-76
2022/06/30 04:04:28;;;;;;;;;0.00;0.00;;;;;-146.67;32.38;73787.25;5064948;28;61851;-77
2022/06/30 04:06:54;;;;;;;;;0.00;0.00;;;;;-146.67;32.35;73779.25;5062978;28;63756;-76
2022/06/30 04:09:19;;;;;;;;;0.00;0.00;;;;;-146.67;32.63;73771.28;5063617;28;61873;-76
2022/06/30 04:11:45;;;;;;;;;0.00;0.00;;;;;-146.67;32.22;73751.31;5064614;28;61797;-76
2022/06/30 04:14:10;;;;;;;;;0.00;0.00;;;;;-146.67;32.30;73745.31;5064043;28;61994;-76
2022/06/30 04:16:35;;;;;;;;;0.00;0.00;;;;;-146.67;32.27;73733.34;5064264;28;61784;-76
2022/06/30 04:19:01;;;;;;;;;0.00;0.00;;;;;-146.67;31.93;73727.34;5065069;28;61946;-77
2022/06/30 04:21:26;;;;;;;;;0.00;0.00;;;;;-146.67;32.04;73729.34;5063774;28;61932;-76
2022/06/30 04:23:52;;;;;;;;;0.00;0.00;;;;;-146.67;32.52;73731.34;5064056;28;62066;-76
2022/06/30 04:26:19;;;;;;;;;0.00;0.00;;;;;-146.67;33.00;73751.31;5054425;28;63100;-77
2022/06/30 04:28:46;;;;;;;;;0.00;0.00;;;;;-146.67;32.81;73747.31;5043569;28;61929;-76
2022/06/30 04:33:56;;;;;;;;;0.00;0.00;;;;;-146.67;33.38;73741.34;5044949;28;61770;-76
2022/06/30 04:36:21;;;;;;;;;0.00;0.00;;;;;-146.67;33.32;73735.34;5043734;28;62178;-76
2022/06/30 04:38:47;;;;;;;;;0.00;0.00;;;;;-146.67;33.07;73731.34;5053988;28;61957;-76
2022/06/30 04:41:24;;;;;;;;;0.00;0.00;;;;;-146.67;33.21;73739.34;5064585;28;61796;-76
2022/06/30 04:43:53;;;;;;;;;0.00;0.00;;;;;-146.67;33.21;73727.34;5064925;28;62377;-77
2022/06/30 04:46:19;;;;;;;;;0.00;0.00;;;;;-146.67;32.61;73701.41;5062933;28;63730;-76
2022/06/30 04:48:44;;;;;;;;;0.00;0.00;;;;;-146.67;32.78;73703.41;5064723;28;61638;-77
2022/06/30 04:51:10;;;;;;;;;0.00;0.00;;;;;-146.67;33.06;73685.44;5064747;28;61807;-77
2022/06/30 04:53:35;;;;;;;;;0.00;0.00;;;;;-146.67;32.90;73673.47;5063962;28;61889;-76
2022/06/30 04:56:00;;;;;;;;;0.00;0.00;;;;;-146.67;32.36;73679.44;5062697;28;64030;-77
2022/06/30 04:58:26;;;;;;;;;0.00;0.00;;;;;-146.67;33.14;73721.38;5063891;28;61671;-76
2022/06/30 05:00:54;;;;;;;;;0.00;0.00;;;;;-146.67;33.32;73711.38;5064318;28;62047;-76
2022/06/30 05:03:20;;;;;;;;;0.00;0.00;;;;;-146.67;32.86;73701.41;5064989;28;61944;-77
2022/06/30 05:05:45;;;;;;;;;0.00;0.00;;;;;-146.67;32.90;73715.38;5063610;28;62744;-78
2022/06/30 05:08:11;;;;;;;;;0.00;0.00;;;;;-146.67;32.27;73719.38;5064211;28;61882;-83
2022/06/30 05:10:36;;;;;;;;;0.00;0.00;;;;;-146.67;32.57;73731.34;5064623;28;61884;-78
2022/06/30 05:13:02;;;;;;;;;0.00;0.00;;;;;-146.67;32.95;73743.31;5063079;28;62026;-78
2022/06/30 05:15:27;;;;;;;;;0.00;0.00;;;;;-146.67;33.11;73747.31;5062491;28;64137;-78
2022/06/30 05:17:53;;;;;;;;;0.00;0.00;;;;;-146.67;32.58;73747.31;5062629;28;61783;-78
2022/06/30 05:20:18;;;;;;;;;0.00;0.00;;;;;-146.67;32.53;73759.28;5063186;28;62262;-78
2022/06/30 05:22:44;;;;;;;;;0.00;0.00;;;;;-146.67;32.83;73767.28;5063061;28;61917;-79
2022/06/30 05:27:53;;;;;;;;;0.00;0.00;;;;;-146.67;33.26;73727.34;5043836;28;61793;-80
2022/06/30 05:30:19;;;;;;;;;0.00;0.00;;;;;-146.67;33.23;73739.34;5044250;28;62335;-83
2022/06/30 05:32:45;;;;;;;;;0.00;0.00;;;;;-146.67;33.07;73703.41;5064113;28;62063;-81
2022/06/30 05:35:10;;;;;;;;;0.00;0.00;;;;;-146.67;32.75;73701.41;5065884;28;63647;-83
2022/06/30 05:37:36;;;;;;;;;0.00;0.00;;;;;-146.67;32.68;73693.44;5071586;27;61945;-81
2022/06/30 05:40:03;;;;;;;;;0.00;0.00;;;;;-146.67;32.49;73685.44;5069679;28;61813;-81
2022/06/30 05:42:29;;;;;;;;;0.00;0.00;;;;;-146.67;32.97;73675.47;5072917;27;62305;-81
2022/06/30 05:44:54;;;;;;;;;0.00;0.00;;;;;-146.67;32.93;73687.44;5073761;28;61790;-81
2022/06/30 05:47:20;;;;;;;;;0.00;0.00;;;;;-146.67;32.89;73657.50;5074525;28;61880;-81
2022/06/30 05:49:45;;;;;;;;;0.00;0.00;;;;;-146.67;32.50;73661.50;5070570;28;62380;-82
2022/06/30 05:52:11;;;;;;;;;0.00;0.00;;;;;-146.67;32.55;73689.44;5071385;27;61810;-83
2022/06/30 05:54:36;;;;;;;;;0.00;0.00;;;;;-146.67;32.53;73659.50;5070046;28;63853;-83
2022/06/30 05:57:03;;;;;;;;;0.00;0.00;;;;;-146.67;32.68;73657.50;5070382;28;62031;-83
2022/06/30 05:59:28;;;;;;;;;0.00;0.00;;;;;-146.67;32.47;73651.50;5064085;28;61822;-83
2022/06/30 06:01:54;;;;;;;;;0.00;0.00;;;;;-146.67;32.53;73645.53;5062112;28;62080;-83
2022/06/30 06:04:19;;;;;;;;;0.00;0.00;;;;;-146.67;32.81;73639.53;5062566;28;61807;-82
2022/06/30 06:06:44;;;;;;;;;0.00;0.00;;;;;-146.67;32.79;73663.47;5063740;28;62132;-83
2022/06/30 06:09:10;;;;;;;;;0.00;0.00;;;;;-146.67;32.35;73659.50;5063026;28;61785;-83
2022/06/30 06:11:36;;;;;;;;;0.00;0.00;;;;;-146.67;32.43;73649.50;5061929;28;62154;-82
2022/06/30 06:14:01;;;;;;;;;0.00;0.00;;;;;-146.67;32.53;73639.53;5064569;28;62508;-80
2022/06/30 06:16:27;;;;;;;;;0.00;0.00;;;;;-146.67;32.54;73645.53;5083304;28;61800;-79
2022/06/30 06:18:52;;;;;;;;;0.00;0.00;;;;;-146.67;32.38;73613.59;5082171;28;61963;-78
2022/06/30 06:21:18;;;;;;;;;0.00;0.00;;;;;-146.67;32.36;73627.56;5082562;27;61930;-81
2022/06/30 06:23:44;;;;;;;;;0.00;0.00;;;;;-146.67;32.16;73615.59;5081764;27;62134;-81
2022/06/30 06:26:09;;;;;;;;;0.00;0.00;;;;;-146.67;32.38;73607.59;5065097;28;61948;-80
2022/06/30 06:31:19;;;;;;;;;0.00;0.00;;;;;-146.67;32.02;73593.63;5049033;28;61930;-80
2022/06/30 06:33:46;;;;;;;;;0.00;0.00;;;;;-146.67;32.02;73597.63;5060140;28;65024;-80
2022/06/30 06:36:12;;;;;;;;;0.00;0.00;;;;;-146.67;31.75;73599.63;5060990;28;62035;-81
2022/06/30 06:38:37;;;;;;;;;0.00;0.00;;;;;-146.67;31.73;73607.59;5062018;28;62011;-80
2022/06/30 06:41:05;;;;;;;;;0.00;0.00;;;;;-146.67;32.24;73629.56;5062540;28;62046;-80
2022/06/30 06:43:31;;;;;;;;;0.00;0.00;;;;;-146.67;31.98;73627.56;5060990;28;64086;-80
2022/06/30 06:45:56;;;;;;;;;0.00;0.00;;;;;-146.67;32.39;73655.50;5062317;28;62196;-80
2022/06/30 06:48:22;;;;;;;;;0.00;0.00;;;;;-146.67;32.10;73663.47;5059982;28;61913;-80
2022/06/30 06:50:48;;;;;;;;;0.00;0.00;;;;;-146.67;32.36;73647.50;5063345;28;61862;-80
2022/06/30 06:53:13;;;;;;;;;0.00;0.00;;;;;-146.67;32.50;73665.47;5059111;28;62054;-81
2022/06/30 06:55:39;;;;;;;;;0.00;0.00;;;;;-146.67;32.17;73661.50;5061737;28;62020;-80
2022/06/30 06:58:05;;;;;;;;;0.00;0.00;;;;;-146.67;32.54;73667.47;5061150;28;61792;-79
2022/06/30 07:00:31;;;;;;;;;0.00;0.00;;;;;-146.67;32.52;73681.44;5062709;28;61729;-80
2022/06/30 07:02:56;;;;;;;;;0.00;0.00;;;;;-146.67;32.57;73677.47;5061595;28;62323;-80
2022/06/30 07:05:22;;;;;;;;;0.00;0.00;;;;;-146.67;32.09;73651.50;5060657;28;61939;-80
2022/06/30 07:08:04;;;;;;;;;0.00;0.00;;;;;-146.67;32.87;73661.50;5061277;28;62340;-80
2022/06/30 07:10:29;;;;;;;;;0.00;0.00;;;;;-146.67;32.53;73681.44;5062771;28;61785;-80
2022/06/30 07:12:55;;;;;;;;;0.00;0.00;;;;;-146.67;33.08;73673.47;5063927;28;62081;-80
2022/06/30 07:15:21;;;;;;;;;0.00;0.00;;;;;-146.67;32.66;73689.44;5067011;28;61911;-80
2022/06/30 07:17:48;;;;;;;;;0.00;0.00;;;;;-146.67;33.60;73685.44;5059489;28;61980;-82
2022/06/30 07:20:13;;;;;;;;;0.00;0.00;;;;;-146.67;34.20;73697.41;5061121;28;61766;-80
2022/06/30 07:22:39;;;;;;;;;0.00;0.00;;;;;-146.67;33.94;73705.41;5060289;28;62873;-81
2022/06/30 07:25:05;;;;;;;;;0.00;0.00;;;;;-146.67;35.11;73701.41;5059888;28;62075;-82
2022/06/30 07:27:31;;;;;;;;;0.00;0.00;;;;;-146.67;33.86;73715.38;5061022;28;61886;-79
2022/06/30 07:29:56;;;;;;;;;0.00;0.00;;;;;-146.67;34.18;73717.38;5060390;28;62255;-81
2022/06/30 07:32:22;;;;;;;;;0.00;0.00;;;;;-146.67;35.14;73715.38;5060761;28;61806;-79
2022/06/30 07:34:47;;;;;;;;;0.00;0.00;;;;;-146.67;34.48;73707.41;5062400;28;61699;-80
2022/06/30 07:37:13;;;;;;;;;0.00;0.00;;;;;-146.67;35.69;73717.38;5061908;28;61703;-81
2022/06/30 07:39:38;;;;;;;;;0.00;0.00;;;;;-146.67;35.38;73721.38;5062254;28;61838;-79
2022/06/30 07:42:04;;;;;;;;;0.00;0.00;;;;;-146.67;34.94;73711.38;5060513;28;61761;-80
2022/06/30 07:44:30;;;;;;;;;0.00;0.00;;;;;-146.67;35.89;73699.41;5060776;28;61989;-80
2022/06/30 07:46:55;;;;;;;;;0.00;0.00;;;;;-146.67;34.94;73691.44;5061228;28;62093;-80
2022/06/30 07:49:21;;;;;;;;;0.00;0.00;;;;;-146.67;35.07;73685.44;5060412;28;62038;-79
2022/06/30 07:51:48;;;;;;;;;0.00;0.00;;;;;-146.67;35.50;73695.41;5061066;28;61805;-80
2022/06/30 07:54:13;;;;;;;;;0.00;0.00;;;;;-146.67;36.13;73705.41;5069226;28;61911;-79
2022/06/30 07:56:39;;;;;;;;;0.00;0.00;;;;;-146.67;37.50;73721.38;5071225;28;61807;-80
2022/06/30 07:59:05;;;;;;;;;0.00;0.00;;;;;-146.67;39.06;73769.28;5070667;28;61919;-79
2022/06/30 08:01:31;;;;;;;;;0.00;0.00;;;;;-146.67;37.02;73785.25;5070245;28;62225;-79
2022/06/30 08:03:57;;;;;;;;;0.00;0.00;;;;;-146.67;37.34;73785.25;5071647;28;61969;-80
2022/06/30 08:06:24;;;;;;;;;0.00;0.00;;;;;-146.67;35.88;73781.25;5069982;27;61734;-79
2022/06/30 08:08:50;;;;;;;;;0.00;0.00;;;;;-146.67;36.14;73779.25;5071353;27;62081;-79
2022/06/30 08:11:15;;;;;;;;;0.00;0.00;;;;;-146.67;37.97;73783.25;5070142;28;62868;-80
2022/06/30 08:13:41;;;;;;;;;0.00;0.00;;;;;-146.67;36.22;73769.28;5081661;27;61773;-80
2022/06/30 08:16:07;;;;;;;;;0.00;0.00;;;;;-146.67;36.32;73771.28;5080522;28;61839;-79
2022/06/30 08:18:32;;;;;;;;;0.00;0.00;;;;;-146.67;35.32;73769.28;5072282;27;61799;-79
2022/06/30 08:20:58;;;;;;;;;0.00;0.00;;;;;-146.67;36.13;73787.25;5060589;28;62787;-79
2022/06/30 08:23:23;;;;;;;;;0.00;0.00;;;;;-146.67;35.60;73791.22;5060822;28;61910;-80
2022/06/30 08:25:49;;;;;;;;;0.00;0.00;;;;;-146.67;35.97;73805.22;5060807;28;62447;-79
2022/06/30 08:28:14;;;;;;;;;0.00;0.00;;;;;-146.67;37.57;73819.19;5060519;28;61969;-79
2022/06/30 08:30:40;;;;;;;;;0.00;0.00;;;;;-146.67;36.73;73817.19;5060286;28;62742;-79
2022/06/30 08:33:06;;;;;;;;;0.00;0.00;;;;;-146.67;36.54;73809.19;5063328;28;62390;-81
2022/06/30 08:35:31;;;;;;;;;0.00;0.00;;;;;-146.67;36.46;73821.19;5065087;28;62098;-80
2022/06/30 08:37:57;;;;;;;;;0.00;0.00;;;;;-146.67;37.32;73807.19;5063733;28;61938;-79
2022/06/30 08:43:10;;;;;;;;;0.00;0.00;;;;;-146.67;34.87;73755.31;5064841;28;61920;-81
2022/06/30 08:45:36;;;;;;;;;0.00;0.00;;;;;-146.67;34.93;73775.25;5062706;28;61862;-76
2022/06/30 08:48:02;;;;;;;;;0.00;0.00;;;;;-146.67;34.53;73769.28;5064715;28;61855;-76
2022/06/30 08:50:28;;;;;;;;;0.00;0.00;;;;;-146.67;35.10;73763.28;5062580;28;63757;-77
2022/06/30 08:52:56;;;;;;;;;0.00;0.00;;;;;-146.67;35.41;73743.31;5064435;28;61984;-76
2022/06/30 08:55:27;;;;;;;;;0.00;0.00;;;;;-146.67;36.06;73725.38;5064154;28;61904;-76
2022/06/30 08:58:01;;;;;;;;;0.00;0.00;;;;;-146.67;35.83;73705.41;5063147;28;61835;-76
2022/06/30 09:00:27;;;;;;;;;0.00;0.00;;;;;-146.67;35.84;73705.41;5061983;28;63501;-77
2022/06/30 09:02:53;;;;;;;;;0.00;0.00;;;;;-146.67;35.39;73697.41;5064444;28;62140;-76
2022/06/30 09:05:18;;;;;;;;;0.00;0.00;;;;;-146.67;34.26;73699.41;5061996;28;62017;-77
2022/06/30 09:07:44;;;;;;;;;0.00;0.00;;;;;-146.67;34.87;73713.38;5060602;28;61759;-76
2022/06/30 09:10:09;;;;;;;;;0.00;0.00;;;;;-146.67;34.48;73703.41;5061431;28;63740;-76
2022/06/30 09:12:35;;;;;;;;;0.00;0.00;;;;;-146.67;34.57;73717.38;5062700;28;61948;-76
2022/06/30 09:15:01;;;;;;;;;0.00;0.00;;;;;-146.67;34.41;73721.38;5061258;28;61789;-77
2022/06/30 09:17:29;;;;;;;;;0.00;0.00;;;;;-146.67;35.16;73731.34;5063159;28;61758;-76
2022/06/30 09:20:00;;;;;;;;;0.00;0.00;;;;;-146.67;35.07;73717.38;5062685;28;62094;-76
2022/06/30 09:22:29;;;;;;;;;0.00;0.00;;;;;-146.67;34.54;73725.38;5060066;28;61924;-77
2022/06/30 09:25:09;;;;;;;;;0.00;0.00;;;;;-146.67;34.04;73723.38;5063184;28;63101;-76
2022/06/30 09:27:38;;;;;;;;;0.00;0.00;;;;;-146.67;34.73;73723.38;5061192;28;61864;-76
2022/06/30 09:30:21;;;;;;;;;0.00;0.00;;;;;-146.67;34.00;73723.38;5061313;28;62895;-76
2022/06/30 09:32:47;;;;;;;;;0.00;0.00;;;;;-146.67;36.20;73731.34;5059735;28;62002;-76
2022/06/30 09:35:13;;;;;;;;;0.00;0.00;;;;;-146.67;34.75;73755.31;5062289;28;61969;-76
2022/06/30 09:37:39;;;;;;;;;0.00;0.00;;;;;-146.67;34.75;73763.28;5060720;28;62207;-77
2022/06/30 09:40:06;;;;;;;;;0.00;0.00;;;;;-146.67;35.89;73781.25;5061686;28;62274;-77
2022/06/30 09:42:47;;;;;;;;;0.00;0.00;;;;;-146.67;35.63;73765.28;5059584;28;62106;-77
2022/06/30 09:45:15;;;;;;;;;0.00;0.00;;;;;-146.67;35.53;73767.28;5062201;28;62048;-77
2022/06/30 09:47:54;;;;;;;;;0.00;0.00;;;;;-146.67;35.31;73735.34;5062340;28;61844;-77
2022/06/30 09:50:21;;;;;;;;;0.00;0.00;;;;;-146.67;35.74;73733.34;5059578;28;63207;-77
2022/06/30 09:53:12;;;;;;;;;0.00;0.00;;;;;-146.67;35.41;73725.38;5062984;28;61849;-77
2022/06/30 09:55:39;;;;;;;;;0.00;0.00;;;;;-146.67;35.08;73735.34;5063640;28;61799;-76
2022/06/30 09:58:04;;;;;;;;;0.00;0.00;;;;;-146.67;35.33;73747.31;5061943;28;61902;-76
2022/06/30 10:00:30;;;;;;;;;0.00;0.00;;;;;-146.67;35.18;73773.28;5062834;28;61792;-77
2022/06/30 10:03:04;;;;;;;;;0.00;0.00;;;;;-146.67;34.52;73751.31;5063204;28;61954;-77
2022/06/30 10:05:30;;;;;;;;;0.00;0.00;;;;;-146.67;34.90;73761.28;5062927;28;61947;-77
2022/06/30 10:07:56;;;;;;;;;0.00;0.00;;;;;-146.67;35.04;73743.31;5062109;28;61860;-77
2022/06/30 10:10:24;;;;;;;;;0.00;0.00;;;;;-146.67;35.46;73743.31;5062962;28;61953;-77
2022/06/30 10:12:50;;;;;;;;;0.00;0.00;;;;;-146.67;34.73;73721.38;5062192;28;61847;-76
2022/06/30 10:15:16;;;;;;;;;0.00;0.00;;;;;-146.67;33.87;73715.38;5066162;28;61986;-77
2022/06/30 10:17:52;;;;;;;;;0.00;0.00;;;;;-146.67;34.66;73715.38;5069429;28;62006;-76
2022/06/30 10:20:18;;;;;;;;;0.00;0.00;;;;;-146.67;34.55;73717.38;5060968;28;64822;-77
2022/06/30 10:22:44;;;;;;;;;0.00;0.00;;;;;-146.67;34.49;73717.38;5061003;28;61857;-77
2022/06/30 10:25:09;;;;;;;;;0.00;0.00;;;;;-146.67;39.79;73755.31;5062043;28;62212;-77
2022/06/30 10:27:35;;;;;;;;;0.00;0.00;;;;;-146.67;39.04;73753.31;5062550;28;61877;-77
2022/06/30 10:30:07;;;;;;;;;0.00;0.00;;;;;-146.67;35.76;73759.28;5062733;28;61808;-77
2022/06/30 10:33:00;;;;;;;;;0.00;0.00;;;;;-146.67;35.85;73773.28;5070809;28;61956;-76
2022/06/30 10:35:29;;;;;;;;;0.00;0.00;;;;;-146.67;35.16;73781.25;5083790;27;62557;-76
2022/06/30 10:38:03;;;;;;;;;0.00;0.00;;;;;-146.67;35.15;73785.25;5078346;28;61959;-77
2022/06/30 10:40:47;;;;;;;;;0.00;0.00;;;;;-146.67;36.22;73779.25;5060806;28;63828;-78
2022/06/30 10:43:14;;;;;;;;;0.00;0.00;;;;;-146.67;34.67;73739.34;5062847;28;61819;-77
2022/06/30 10:46:00;;;;;;;;;0.00;0.00;;;;;-146.67;34.94;73743.31;5062902;28;61957;-77
2022/06/30 10:48:29;;;;;;;;;0.00;0.00;;;;;-146.67;34.39;73755.31;5063006;28;61740;-77
2022/06/30 10:50:56;;;;;;;;;0.00;0.00;;;;;-146.67;35.12;73771.28;5062043;28;62060;-76
2022/06/30 10:53:41;;;;;;;;;0.00;0.00;;;;;-146.67;36.09;73761.28;5063416;28;62183;-79
2022/06/30 10:56:08;;;;;;;;;0.00;0.00;;;;;-146.67;35.82;73755.31;5065753;28;62332;-77
2022/06/30 10:58:34;;;;;;;;;0.00;0.00;;;;;-146.67;35.86;73743.31;5061652;28;61946;-77
2022/06/30 11:01:00;;;;;;;;;0.00;0.00;;;;;-146.67;35.10;73731.34;5059723;28;63664;-77
2022/06/30 11:03:34;;;;;;;;;0.00;0.00;;;;;-146.67;35.18;73727.34;5062006;28;62169;-77
2022/06/30 11:06:06;;;;;;;;;0.00;0.00;;;;;-146.67;35.35;73721.38;5060005;28;61976;-77
2022/06/30 11:08:38;;;;;;;;;0.00;0.00;;;;;-146.67;34.70;73729.34;5062097;28;61979;-77
2022/06/30 11:11:22;;;;;;;;;0.00;0.00;;;;;-146.67;34.51;73715.38;5058486;28;62643;-77
2022/06/30 11:14:08;;;;;;;;;0.00;0.00;;;;;-146.67;34.95;73703.41;5059380;28;61808;-77
2022/06/30 11:16:36;;;;;;;;;0.00;0.00;;;;;-146.67;35.04;73695.41;5081898;27;61887;-78
2022/06/30 11:19:06;;;;;;;;;0.00;0.00;;;;;-146.67;35.01;73705.41;5061816;28;61938;-78
2022/06/30 11:21:32;;;;;;;;;0.00;0.00;;;;;-146.67;33.45;73693.44;5060906;28;61882;-78
2022/06/30 11:24:01;;;;;;;;;0.00;0.00;;;;;-146.67;34.60;73687.44;5060218;28;62054;-77
2022/06/30 11:29:15;;;;;;;;;0.00;0.00;;;;;-146.67;34.93;73685.44;5060464;28;61830;-77
2022/06/30 11:31:42;;;;;;;;;0.00;0.00;;;;;-146.67;34.25;73679.44;5060122;28;61767;-79
2022/06/30 11:34:09;;;;;;;;;0.00;0.00;;;;;-146.67;34.85;73665.47;5061158;28;62767;-79